Pooler, GA (31322)

3:54 AM EDT on August 30, 2015 (GMT -0400)
Savannah International | | Change Station
CLOSE
Current Station
Airport
Location: Savannah,
Elevation: 49 ft
Nearby Weather Stations

Elev 49 ft 32.13 °N, 81.20 °W | Updated 1 minute ago

Partly Cloudy
Partly Cloudy
73 °F
Feels Like 73 °F
N
7
Wind Variable Wind from WNW

Today
High -- | Low -- °F
--% Chance of Precip.
Yesterday
High -- | Low -- °F
Precip. -- in
6:58 AM 7:52 PM
Full, 100% visible
Pressure 30.07 in
Visibility 6.0 miles
Clouds Few 5000 ft
Scattered Clouds 6000 ft
Mostly Cloudy 12000 ft
Dew Point 69 °F
Humidity 87%
Rainfall 0.01 in
Snow Depth Not available.
UV 0 out of 12
Pollen 4.90 out of 12
Air Quality Not available.
Flu Activity Not available.
METAR KSAV 300753Z AUTO 29006KT 6SM RA BR FEW050 SCT060 BKN120 23/21 A3007 RMK AO2 RAB25 SLP181 P0001 T02280206 TSNO
Pressure 30.07 in
Visibility 6.0 miles
Clouds Few 5000 ft
Scattered Clouds 6000 ft
Mostly Cloudy 12000 ft
Dew Point 69 °F
Humidity 87%
Rainfall 0.01 in
Snow Depth Not available.
UV 0 out of 12
Pollen 4.90 out of 12
Air Quality Not available.
Flu Activity Not available.
METAR KSAV 300753Z AUTO 29006KT 6SM RA BR FEW050 SCT060 BKN120 23/21 A3007 RMK AO2 RAB25 SLP181 P0001 T02280206 TSNO

10-Day Weather Forecast

×

Almanac

Astronomy

Aug. 30, 2015 Rise Set
Actual Time
Civil Twilight
Nautical Twilight
Astronomical Twilight
Moon
Length of Visible Light
Length of Day
Tomorrow will be .
, % of the Moon is Illuminated

Today's Extremes

State Highs State Lows

Community

WunderPhotos

Upload Photos

1,850,904 photos uploaded!

WunderBlogs® & News

Nearby

Air Quality

  Air Quality AQ Index Pollutant
Not available.

Snow Depth

Station Depth Elevation

Earthquake Activity

City Distance Mag. Time & Date
Minimum magnitude displayed is 2.5.

Coastal Water Temperatures

Place Temperature

Stations

Nearby Weather Stations

Station Location Temp. Windchill Dew Point Humidity Wind Precip. Elev Updated Type